sensor_id;sensor_type;location;lat;lon;timestamp;temperature;humidity
1680;DHT22;838;51.794;12.258;2023-03-01T00:01:27;-0.30;2.20
1680;DHT22;838;51.794;12.258;2023-03-01T00:03:54;-0.30;2.20
1680;DHT22;838;51.794;12.258;2023-03-01T00:06:20;-0.10;2.40
1680;DHT22;838;51.794;12.258;2023-03-01T00:08:47;-0.30;2.20
1680;DHT22;838;51.794;12.258;2023-03-01T00:11:19;-0.30;2.20
1680;DHT22;838;51.794;12.258;2023-03-01T00:13:46;-0.40;2.10
1680;DHT22;838;51.794;12.258;2023-03-01T00:16:21;-0.50;2.50
1680;DHT22;838;51.794;12.258;2023-03-01T00:18:47;-0.70;2.60
1680;DHT22;838;51.794;12.258;2023-03-01T00:21:14;-0.90;3.70
1680;DHT22;838;51.794;12.258;2023-03-01T00:23:41;-1.00;4.70
1680;DHT22;838;51.794;12.258;2023-03-01T00:26:09;-0.80;4.00
1680;DHT22;838;51.794;12.258;2023-03-01T00:28:35;-0.80;3.30
1680;DHT22;838;51.794;12.258;2023-03-01T00:31:12;-1.10;4.70
1680;DHT22;838;51.794;12.258;2023-03-01T00:33:39;-0.90;5.20
1680;DHT22;838;51.794;12.258;2023-03-01T00:36:05;-0.80;4.60
1680;DHT22;838;51.794;12.258;2023-03-01T00:38:35;-0.70;4.30
1680;DHT22;838;51.794;12.258;2023-03-01T00:41:11;-0.60;3.30
1680;DHT22;838;51.794;12.258;2023-03-01T00:43:40;-0.60;3.00
1680;DHT22;838;51.794;12.258;2023-03-01T00:46:14;-0.50;2.80
1680;DHT22;838;51.794;12.258;2023-03-01T00:48:40;-0.50;2.60
1680;DHT22;838;51.794;12.258;2023-03-01T00:51:12;-0.50;2.60
1680;DHT22;838;51.794;12.258;2023-03-01T00:53:38;-0.60;2.00
1680;DHT22;838;51.794;12.258;2023-03-01T00:56:06;-0.70;2.00
1680;DHT22;838;51.794;12.258;2023-03-01T00:58:33;-0.60;2.00
1680;DHT22;838;51.794;12.258;2023-03-01T01:01:00;-0.60;2.00
1680;DHT22;838;51.794;12.258;2023-03-01T01:03:26;-0.60;1.80
1680;DHT22;838;51.794;12.258;2023-03-01T01:05:52;-0.80;1.90
1680;DHT22;838;51.794;12.258;2023-03-01T01:08:18;-1.10;2.30
1680;DHT22;838;51.794;12.258;2023-03-01T01:10:45;-1.20;3.00
1680;DHT22;838;51.794;12.258;2023-03-01T01:13:14;-1.10;2.90
1680;DHT22;838;51.794;12.258;2023-03-01T01:15:46;-1.10;2.60
1680;DHT22;838;51.794;12.258;2023-03-01T01:18:24;-1.20;2.90
1680;DHT22;838;51.794;12.258;2023-03-01T01:20:55;-1.20;3.30
1680;DHT22;838;51.794;12.258;2023-03-01T01:23:21;-1.00;3.20
1680;DHT22;838;51.794;12.258;2023-03-01T01:26:13;-1.20;3.80
1680;DHT22;838;51.794;12.258;2023-03-01T01:28:40;-1.00;3.80
1680;DHT22;838;51.794;12.258;2023-03-01T01:31:06;-1.10;4.00
1680;DHT22;838;51.794;12.258;2023-03-01T01:33:35;-1.00;3.30
1680;DHT22;838;51.794;12.258;2023-03-01T01:36:13;-0.90;2.90
1680;DHT22;838;51.794;12.258;2023-03-01T01:38:39;-0.90;3.20
1680;DHT22;838;51.794;12.258;2023-03-01T01:41:12;-0.90;3.20
1680;DHT22;838;51.794;12.258;2023-03-01T01:46:33;-0.80;2.80
1680;DHT22;838;51.794;12.258;2023-03-01T01:49:04;-1.00;3.30
1680;DHT22;838;51.794;12.258;2023-03-01T01:51:35;-1.00;3.10
1680;DHT22;838;51.794;12.258;2023-03-01T01:54:08;-1.10;3.80
1680;DHT22;838;51.794;12.258;2023-03-01T01:56:38;-1.00;3.90
1680;DHT22;838;51.794;12.258;2023-03-01T01:59:08;-0.90;3.50
1680;DHT22;838;51.794;12.258;2023-03-01T02:01:34;-0.90;3.30
1680;DHT22;838;51.794;12.258;2023-03-01T02:04:00;-0.90;2.80
1680;DHT22;838;51.794;12.258;2023-03-01T02:06:49;-0.90;2.70
1680;DHT22;838;51.794;12.258;2023-03-01T02:09:21;-1.10;2.40
1680;DHT22;838;51.794;12.258;2023-03-01T02:11:55;-1.20;3.10
1680;DHT22;838;51.794;12.258;2023-03-01T02:14:26;-1.40;3.50
1680;DHT22;838;51.794;12.258;2023-03-01T02:17:03;-1.50;3.90
1680;DHT22;838;51.794;12.258;2023-03-01T02:22:39;-1.50;4.60
1680;DHT22;838;51.794;12.258;2023-03-01T02:28:58;-1.70;5.00
1680;DHT22;838;51.794;12.258;2023-03-01T02:31:34;-1.70;5.30
1680;DHT22;838;51.794;12.258;2023-03-01T02:34:33;-1.60;5.00
1680;DHT22;838;51.794;12.258;2023-03-01T02:37:18;-1.40;4.20
1680;DHT22;838;51.794;12.258;2023-03-01T02:40:15;-1.50;4.00
1680;DHT22;838;51.794;12.258;2023-03-01T02:56:39;-1.80;5.00
1680;DHT22;838;51.794;12.258;2023-03-01T03:00:02;-1.80;4.90
1680;DHT22;838;51.794;12.258;2023-03-01T03:03:11;-1.90;4.70
1680;DHT22;838;51.794;12.258;2023-03-01T03:05:44;-1.90;4.70
1680;DHT22;838;51.794;12.258;2023-03-01T03:08:37;-1.90;5.00
1680;DHT22;838;51.794;12.258;2023-03-01T03:11:09;-1.90;4.80
1680;DHT22;838;51.794;12.258;2023-03-01T03:13:40;-1.80;4.60
1680;DHT22;838;51.794;12.258;2023-03-01T03:16:22;-1.80;4.50
1680;DHT22;838;51.794;12.258;2023-03-01T03:23:20;-2.10;4.30
1680;DHT22;838;51.794;12.258;2023-03-01T03:26:17;-2.30;5.30
1680;DHT22;838;51.794;12.258;2023-03-01T03:34:55;-2.20;5.30
1680;DHT22;838;51.794;12.258;2023-03-01T03:37:57;-2.30;5.60
1680;DHT22;838;51.794;12.258;2023-03-01T03:45:18;-2.30;5.80
1680;DHT22;838;51.794;12.258;2023-03-01T03:48:03;-2.30;6.00
1680;DHT22;838;51.794;12.258;2023-03-01T03:51:04;-2.20;5.60
1680;DHT22;838;51.794;12.258;2023-03-01T03:54:29;-2.20;6.00
1680;DHT22;838;51.794;12.258;2023-03-01T03:57:00;-2.20;5.30
1680;DHT22;838;51.794;12.258;2023-03-01T04:02:25;-2.30;5.90
1680;DHT22;838;51.794;12.258;2023-03-01T04:04:54;-2.30;5.50
1680;DHT22;838;51.794;12.258;2023-03-01T04:07:29;-2.20;5.00
1680;DHT22;838;51.794;12.258;2023-03-01T04:10:06;-2.10;4.60
1680;DHT22;838;51.794;12.258;2023-03-01T04:12:46;-2.30;4.40
1680;DHT22;838;51.794;12.258;2023-03-01T04:15:12;-2.40;5.10
1680;DHT22;838;51.794;12.258;2023-03-01T04:17:41;-2.30;4.80
1680;DHT22;838;51.794;12.258;2023-03-01T04:20:22;-2.20;4.70
1680;DHT22;838;51.794;12.258;2023-03-01T04:25:37;-2.10;4.10
1680;DHT22;838;51.794;12.258;2023-03-01T04:28:55;-2.00;3.70
1680;DHT22;838;51.794;12.258;2023-03-01T04:31:31;-2.30;3.60
1680;DHT22;838;51.794;12.258;2023-03-01T04:40:23;-2.10;3.90
1680;DHT22;838;51.794;12.258;2023-03-01T04:42:58;-2.10;3.60
1680;DHT22;838;51.794;12.258;2023-03-01T04:45:47;-2.20;3.50
1680;DHT22;838;51.794;12.258;2023-03-01T04:48:43;-2.30;4.20
1680;DHT22;838;51.794;12.258;2023-03-01T04:51:35;-2.20;4.10
1680;DHT22;838;51.794;12.258;2023-03-01T04:55:02;-2.10;4.10
1680;DHT22;838;51.794;12.258;2023-03-01T04:57:45;-2.10;4.20
1680;DHT22;838;51.794;12.258;2023-03-01T05:00:32;-2.10;4.00
1680;DHT22;838;51.794;12.258;2023-03-01T05:03:18;-2.10;3.60
1680;DHT22;838;51.794;12.258;2023-03-01T05:06:20;-2.00;3.30
1680;DHT22;838;51.794;12.258;2023-03-01T05:09:06;-2.10;3.00
1680;DHT22;838;51.794;12.258;2023-03-01T05:29:01;-2.60;4.00
1680;DHT22;838;51.794;12.258;2023-03-01T05:31:45;-2.60;3.60
1680;DHT22;838;51.794;12.258;2023-03-01T05:40:23;-2.40;3.10
1680;DHT22;838;51.794;12.258;2023-03-01T05:43:38;-2.40;3.20
1680;DHT22;838;51.794;12.258;2023-03-01T05:53:54;-2.30;3.00
1680;DHT22;838;51.794;12.258;2023-03-01T06:00:26;-2.30;3.00
1680;DHT22;838;51.794;12.258;2023-03-01T06:03:23;-2.30;3.30
1680;DHT22;838;51.794;12.258;2023-03-01T06:16:15;-2.10;2.80
1680;DHT22;838;51.794;12.258;2023-03-01T06:18:44;-2.30;4.60
1680;DHT22;838;51.794;12.258;2023-03-01T06:21:10;-2.20;4.90
1680;DHT22;838;51.794;12.258;2023-03-01T06:23:39;-2.10;5.30
1680;DHT22;838;51.794;12.258;2023-03-01T06:26:06;-2.00;4.60
1680;DHT22;838;51.794;12.258;2023-03-01T06:28:32;-1.80;6.30
1680;DHT22;838;51.794;12.258;2023-03-01T06:30:58;-1.40;5.60
1680;DHT22;838;51.794;12.258;2023-03-01T06:33:24;-1.20;4.60
1680;DHT22;838;51.794;12.258;2023-03-01T06:35:50;-1.00;4.80
1680;DHT22;838;51.794;12.258;2023-03-01T06:38:16;-0.90;3.80
1680;DHT22;838;51.794;12.258;2023-03-01T06:40:44;-0.60;3.50
1680;DHT22;838;51.794;12.258;2023-03-01T06:43:10;-0.50;2.10
1680;DHT22;838;51.794;12.258;2023-03-01T06:45:36;-0.40;2.30
1680;DHT22;838;51.794;12.258;2023-03-01T06:48:06;0.00;3.60
1680;DHT22;838;51.794;12.258;2023-03-01T06:50:33;0.60;4.20
1680;DHT22;838;51.794;12.258;2023-03-01T06:52:59;1.30;1.80
1680;DHT22;838;51.794;12.258;2023-03-01T06:55:25;1.60;1.00
1680;DHT22;838;51.794;12.258;2023-03-01T06:57:58;1.70;1.00
1680;DHT22;838;51.794;12.258;2023-03-01T07:00:24;1.70;1.00
1680;DHT22;838;51.794;12.258;2023-03-01T07:02:50;1.70;1.00
1680;DHT22;838;51.794;12.258;2023-03-01T07:05:16;1.50;1.00
1680;DHT22;838;51.794;12.258;2023-03-01T07:07:42;1.50;1.00
1680;DHT22;838;51.794;12.258;2023-03-01T07:10:08;1.30;1.00
1680;DHT22;838;51.794;12.258;2023-03-01T07:12:34;1.30;1.00
1680;DHT22;838;51.794;12.258;2023-03-01T07:15:00;1.30;1.00
1680;DHT22;838;51.794;12.258;2023-03-01T07:17:26;1.50;1.00
1680;DHT22;838;51.794;12.258;2023-03-01T07:19:51;1.40;1.00
1680;DHT22;838;51.794;12.258;2023-03-01T07:22:17;1.40;1.00
1680;DHT22;838;51.794;12.258;2023-03-01T07:24:43;1.40;1.00
1680;DHT22;838;51.794;12.258;2023-03-01T07:27:09;1.50;1.00
1680;DHT22;838;51.794;12.258;2023-03-01T07:29:35;1.70;1.50
1680;DHT22;838;51.794;12.258;2023-03-01T07:32:05;1.90;1.40
1680;DHT22;838;51.794;12.258;2023-03-01T07:34:31;2.20;1.00
1680;DHT22;838;51.794;12.258;2023-03-01T07:36:57;2.30;1.00
1680;DHT22;838;51.794;12.258;2023-03-01T07:39:22;1.80;1.00
1680;DHT22;838;51.794;12.258;2023-03-01T07:41:49;1.70;2.10
1680;DHT22;838;51.794;12.258;2023-03-01T07:44:15;2.20;1.80
1680;DHT22;838;51.794;12.258;2023-03-01T07:46:42;3.00;1.00
1680;DHT22;838;51.794;12.258;2023-03-01T07:49:07;3.90;1.00
1680;DHT22;838;51.794;12.258;2023-03-01T07:51:33;5.10;1.00
1680;DHT22;838;51.794;12.258;2023-03-01T07:53:59;6.20;1.00
1680;DHT22;838;51.794;12.258;2023-03-01T07:56:24;7.10;1.00
1680;DHT22;838;51.794;12.258;2023-03-01T07:58:50;8.00;1.00
1680;DHT22;838;51.794;12.258;2023-03-01T08:01:18;8.60;1.00
1680;DHT22;838;51.794;12.258;2023-03-01T08:03:44;8.80;1.00
1680;DHT22;838;51.794;12.258;2023-03-01T08:06:11;9.20;1.00
1680;DHT22;838;51.794;12.258;2023-03-01T08:08:37;9.30;1.00
1680;DHT22;838;51.794;12.258;2023-03-01T08:11:04;8.90;1.00
1680;DHT22;838;51.794;12.258;2023-03-01T08:13:31;9.30;1.00
1680;DHT22;838;51.794;12.258;2023-03-01T08:16:04;9.20;1.00
1680;DHT22;838;51.794;12.258;2023-03-01T08:18:31;9.40;1.00
1680;DHT22;838;51.794;12.258;2023-03-01T08:21:08;9.80;1.00
1680;DHT22;838;51.794;12.258;2023-03-01T08:23:34;9.90;1.00
1680;DHT22;838;51.794;12.258;2023-03-01T08:26:08;10.30;1.00
1680;DHT22;838;51.794;12.258;2023-03-01T08:28:34;10.40;1.00
1680;DHT22;838;51.794;12.258;2023-03-01T08:31:00;10.10;1.00
1680;DHT22;838;51.794;12.258;2023-03-01T08:33:26;9.80;1.00
1680;DHT22;838;51.794;12.258;2023-03-01T08:35:52;9.10;1.00
1680;DHT22;838;51.794;12.258;2023-03-01T08:38:18;8.70;1.00
1680;DHT22;838;51.794;12.258;2023-03-01T08:40:43;7.70;1.00
1680;DHT22;838;51.794;12.258;2023-03-01T08:43:09;7.10;1.00
1680;DHT22;838;51.794;12.258;2023-03-01T08:45:36;7.20;1.00
1680;DHT22;838;51.794;12.258;2023-03-01T08:48:02;7.60;1.00
1680;DHT22;838;51.794;12.258;2023-03-01T08:50:28;8.10;1.00
1680;DHT22;838;51.794;12.258;2023-03-01T08:52:53;8.30;1.00
1680;DHT22;838;51.794;12.258;2023-03-01T08:55:19;8.40;1.00
1680;DHT22;838;51.794;12.258;2023-03-01T08:57:45;7.90;1.00
1680;DHT22;838;51.794;12.258;2023-03-01T09:00:11;7.50;1.00
1680;DHT22;838;51.794;12.258;2023-03-01T09:02:37;7.20;1.00
1680;DHT22;838;51.794;12.258;2023-03-01T09:05:04;6.80;1.00
1680;DHT22;838;51.794;12.258;2023-03-01T09:07:30;7.90;1.00
1680;DHT22;838;51.794;12.258;2023-03-01T09:09:55;8.70;1.00
1680;DHT22;838;51.794;12.258;2023-03-01T09:12:21;9.60;1.00
1680;DHT22;838;51.794;12.258;2023-03-01T09:14:47;10.10;1.00
1680;DHT22;838;51.794;12.258;2023-03-01T09:17:13;10.00;1.00
1680;DHT22;838;51.794;12.258;2023-03-01T09:19:39;10.10;1.00
1680;DHT22;838;51.794;12.258;2023-03-01T09:22:05;10.30;1.00
1680;DHT22;838;51.794;12.258;2023-03-01T09:24:30;10.10;1.00
1680;DHT22;838;51.794;12.258;2023-03-01T09:26:56;11.00;1.00
1680;DHT22;838;51.794;12.258;2023-03-01T09:29:23;10.00;1.00
1680;DHT22;838;51.794;12.258;2023-03-01T09:31:49;10.00;1.00
1680;DHT22;838;51.794;12.258;2023-03-01T09:34:14;10.10;1.00
1680;DHT22;838;51.794;12.258;2023-03-01T09:36:44;10.20;1.00
1680;DHT22;838;51.794;12.258;2023-03-01T09:39:10;9.80;1.00
1680;DHT22;838;51.794;12.258;2023-03-01T09:44:22;6.40;1.00
1680;DHT22;838;51.794;12.258;2023-03-01T09:46:51;5.90;1.00
1680;DHT22;838;51.794;12.258;2023-03-01T09:49:29;5.50;1.00
1680;DHT22;838;51.794;12.258;2023-03-01T09:54:58;5.30;1.00
1680;DHT22;838;51.794;12.258;2023-03-01T09:57:38;5.30;1.00
1680;DHT22;838;51.794;12.258;2023-03-01T10:03:01;5.60;1.00
1680;DHT22;838;51.794;12.258;2023-03-01T10:10:55;5.70;1.00
1680;DHT22;838;51.794;12.258;2023-03-01T10:16:11;5.60;1.00
1680;DHT22;838;51.794;12.258;2023-03-01T10:18:39;5.70;1.00
1680;DHT22;838;51.794;12.258;2023-03-01T10:21:15;5.50;1.00
1680;DHT22;838;51.794;12.258;2023-03-01T10:23:42;5.50;1.00
1680;DHT22;838;51.794;12.258;2023-03-01T10:26:32;5.40;1.00
1680;DHT22;838;51.794;12.258;2023-03-01T10:29:08;5.60;1.00
1680;DHT22;838;51.794;12.258;2023-03-01T10:34:38;5.60;1.00
1680;DHT22;838;51.794;12.258;2023-03-01T10:37:19;5.70;1.00
1680;DHT22;838;51.794;12.258;2023-03-01T10:42:48;5.90;1.00
1680;DHT22;838;51.794;12.258;2023-03-01T10:45:30;6.10;1.00
1680;DHT22;838;51.794;12.258;2023-03-01T10:50:34;6.10;1.00
1680;DHT22;838;51.794;12.258;2023-03-01T10:53:02;6.10;1.00
1680;DHT22;838;51.794;12.258;2023-03-01T10:55:38;6.20;1.00
1680;DHT22;838;51.794;12.258;2023-03-01T10:58:08;6.20;1.00
1680;DHT22;838;51.794;12.258;2023-03-01T11:00:52;6.30;1.00
1680;DHT22;838;51.794;12.258;2023-03-01T11:03:25;6.60;1.00
1680;DHT22;838;51.794;12.258;2023-03-01T11:08:42;6.60;1.00
1680;DHT22;838;51.794;12.258;2023-03-01T11:11:22;6.30;1.00
1680;DHT22;838;51.794;12.258;2023-03-01T11:16:38;6.60;1.00
1680;DHT22;838;51.794;12.258;2023-03-01T11:27:01;7.20;1.00
1680;DHT22;838;51.794;12.258;2023-03-01T11:32:01;7.20;1.00
1680;DHT22;838;51.794;12.258;2023-03-01T11:34:57;7.00;1.00
1680;DHT22;838;51.794;12.258;2023-03-01T11:38:01;7.00;1.00
1680;DHT22;838;51.794;12.258;2023-03-01T11:40:39;7.40;1.00
1680;DHT22;838;51.794;12.258;2023-03-01T11:43:28;7.60;1.00
1680;DHT22;838;51.794;12.258;2023-03-01T12:00:06;7.30;1.00
1680;DHT22;838;51.794;12.258;2023-03-01T12:08:24;7.30;1.00
1680;DHT22;838;51.794;12.258;2023-03-01T12:22:32;7.40;1.00
1680;DHT22;838;51.794;12.258;2023-03-01T12:25:34;7.50;1.00
1680;DHT22;838;51.794;12.258;2023-03-01T12:28:14;7.60;1.00
1680;DHT22;838;51.794;12.258;2023-03-01T12:50:57;7.60;1.00
1680;DHT22;838;51.794;12.258;2023-03-01T12:53:27;7.80;1.00
1680;DHT22;838;51.794;12.258;2023-03-01T12:55:56;7.80;1.00
1680;DHT22;838;51.794;12.258;2023-03-01T12:58:32;7.80;1.00
1680;DHT22;838;51.794;12.258;2023-03-01T13:09:24;8.40;1.00
1680;DHT22;838;51.794;12.258;2023-03-01T13:11:52;8.40;1.00
1680;DHT22;838;51.794;12.258;2023-03-01T13:16:53;8.60;1.00
1680;DHT22;838;51.794;12.258;2023-03-01T13:19:27;8.60;1.00
1680;DHT22;838;51.794;12.258;2023-03-01T13:21:58;8.60;1.00
1680;DHT22;838;51.794;12.258;2023-03-01T13:29:53;8.60;1.00
1680;DHT22;838;51.794;12.258;2023-03-01T13:34:50;8.60;1.00
1680;DHT22;838;51.794;12.258;2023-03-01T13:37:22;8.60;1.00
1680;DHT22;838;51.794;12.258;2023-03-01T13:39:48;8.70;1.00
1680;DHT22;838;51.794;12.258;2023-03-01T13:42:34;8.60;1.00
1680;DHT22;838;51.794;12.258;2023-03-01T13:45:03;8.60;1.00
1680;DHT22;838;51.794;12.258;2023-03-01T13:47:30;8.80;1.00
1680;DHT22;838;51.794;12.258;2023-03-01T13:50:01;8.60;1.00
1680;DHT22;838;51.794;12.258;2023-03-01T13:53:06;8.60;1.00
1680;DHT22;838;51.794;12.258;2023-03-01T13:55:42;8.50;1.00
1680;DHT22;838;51.794;12.258;2023-03-01T13:58:31;8.60;1.00
1680;DHT22;838;51.794;12.258;2023-03-01T14:01:06;8.60;1.00
1680;DHT22;838;51.794;12.258;2023-03-01T14:03:39;8.50;1.00
1680;DHT22;838;51.794;12.258;2023-03-01T14:06:16;8.40;1.00
1680;DHT22;838;51.794;12.258;2023-03-01T14:08:46;8.30;1.00
1680;DHT22;838;51.794;12.258;2023-03-01T14:19:29;8.60;1.00
1680;DHT22;838;51.794;12.258;2023-03-01T14:22:22;8.50;1.00
1680;DHT22;838;51.794;12.258;2023-03-01T14:24:51;8.60;1.00
1680;DHT22;838;51.794;12.258;2023-03-01T14:30:53;8.60;1.00
1680;DHT22;838;51.794;12.258;2023-03-01T14:36:25;8.60;1.00
1680;DHT22;838;51.794;12.258;2023-03-01T14:38:53;8.40;1.00
1680;DHT22;838;51.794;12.258;2023-03-01T14:41:25;8.30;1.00
1680;DHT22;838;51.794;12.258;2023-03-01T14:43:59;8.30;1.00
1680;DHT22;838;51.794;12.258;2023-03-01T14:46:39;8.40;1.00
1680;DHT22;838;51.794;12.258;2023-03-01T14:49:20;8.40;1.00
1680;DHT22;838;51.794;12.258;2023-03-01T14:52:06;8.50;1.00
1680;DHT22;838;51.794;12.258;2023-03-01T14:54:46;8.60;1.00
1680;DHT22;838;51.794;12.258;2023-03-01T14:57:26;8.60;1.00
1680;DHT22;838;51.794;12.258;2023-03-01T14:59:54;8.30;1.00
1680;DHT22;838;51.794;12.258;2023-03-01T15:02:28;8.20;1.00
1680;DHT22;838;51.794;12.258;2023-03-01T15:05:00;8.30;1.00
1680;DHT22;838;51.794;12.258;2023-03-01T15:07:37;8.30;1.00
1680;DHT22;838;51.794;12.258;2023-03-01T15:10:06;8.50;1.00
1680;DHT22;838;51.794;12.258;2023-03-01T15:12:36;8.40;1.00
1680;DHT22;838;51.794;12.258;2023-03-01T15:17:59;8.10;1.00
1680;DHT22;838;51.794;12.258;2023-03-01T15:20:27;8.00;1.00
1680;DHT22;838;51.794;12.258;2023-03-01T15:22:56;8.10;1.00
1680;DHT22;838;51.794;12.258;2023-03-01T15:25:28;8.00;1.00
1680;DHT22;838;51.794;12.258;2023-03-01T15:27:56;8.10;1.00
1680;DHT22;838;51.794;12.258;2023-03-01T15:30:35;8.20;1.00
1680;DHT22;838;51.794;12.258;2023-03-01T15:35:56;8.70;1.00
1680;DHT22;838;51.794;12.258;2023-03-01T15:38:34;8.60;1.00
1680;DHT22;838;51.794;12.258;2023-03-01T15:41:26;8.40;1.00
1680;DHT22;838;51.794;12.258;2023-03-01T15:43:57;8.40;1.00
1680;DHT22;838;51.794;12.258;2023-03-01T15:46:53;8.50;1.00
1680;DHT22;838;51.794;12.258;2023-03-01T15:52:01;8.10;1.00
1680;DHT22;838;51.794;12.258;2023-03-01T15:54:28;8.10;1.00
1680;DHT22;838;51.794;12.258;2023-03-01T15:57:40;7.90;1.00
1680;DHT22;838;51.794;12.258;2023-03-01T15:59:50;7.90;1.00
1680;DHT22;838;51.794;12.258;2023-03-01T16:02:16;8.00;1.00
1680;DHT22;838;51.794;12.258;2023-03-01T16:04:42;7.90;1.00
1680;DHT22;838;51.794;12.258;2023-03-01T16:07:18;7.90;1.00
1680;DHT22;838;51.794;12.258;2023-03-01T16:09:52;8.10;1.00
1680;DHT22;838;51.794;12.258;2023-03-01T16:12:18;8.30;1.00
1680;DHT22;838;51.794;12.258;2023-03-01T16:14:48;8.20;1.00
1680;DHT22;838;51.794;12.258;2023-03-01T16:17:18;7.90;1.00
1680;DHT22;838;51.794;12.258;2023-03-01T16:19:49;7.80;1.00
1680;DHT22;838;51.794;12.258;2023-03-01T16:22:15;7.70;1.00
1680;DHT22;838;51.794;12.258;2023-03-01T16:24:41;7.60;1.00
1680;DHT22;838;51.794;12.258;2023-03-01T16:27:10;7.60;1.00
1680;DHT22;838;51.794;12.258;2023-03-01T16:29:35;7.80;1.00
1680;DHT22;838;51.794;12.258;2023-03-01T16:32:02;7.90;1.00
1680;DHT22;838;51.794;12.258;2023-03-01T16:34:28;8.00;1.00
1680;DHT22;838;51.794;12.258;2023-03-01T16:36:59;7.90;1.00
1680;DHT22;838;51.794;12.258;2023-03-01T16:39:41;8.00;1.00
1680;DHT22;838;51.794;12.258;2023-03-01T16:42:07;8.20;1.00
1680;DHT22;838;51.794;12.258;2023-03-01T16:44:36;8.40;1.00
1680;DHT22;838;51.794;12.258;2023-03-01T16:47:01;8.20;1.00
1680;DHT22;838;51.794;12.258;2023-03-01T16:49:27;8.10;1.00
1680;DHT22;838;51.794;12.258;2023-03-01T16:52:05;8.00;1.00
1680;DHT22;838;51.794;12.258;2023-03-01T16:54:34;8.00;1.00
1680;DHT22;838;51.794;12.258;2023-03-01T16:57:00;7.10;1.00
1680;DHT22;838;51.794;12.258;2023-03-01T16:59:35;6.80;1.00
1680;DHT22;838;51.794;12.258;2023-03-01T17:02:05;6.90;1.00
1680;DHT22;838;51.794;12.258;2023-03-01T17:04:35;7.10;1.00
1680;DHT22;838;51.794;12.258;2023-03-01T17:07:03;7.20;1.00
1680;DHT22;838;51.794;12.258;2023-03-01T17:09:39;7.00;1.00
1680;DHT22;838;51.794;12.258;2023-03-01T17:12:05;6.80;1.00
1680;DHT22;838;51.794;12.258;2023-03-01T17:14:30;6.50;1.00
1680;DHT22;838;51.794;12.258;2023-03-01T17:16:56;6.50;1.00
1680;DHT22;838;51.794;12.258;2023-03-01T17:19:22;6.50;1.00
1680;DHT22;838;51.794;12.258;2023-03-01T17:21:48;6.20;1.00
1680;DHT22;838;51.794;12.258;2023-03-01T17:24:14;6.00;1.00
1680;DHT22;838;51.794;12.258;2023-03-01T17:26:40;6.00;1.00
1680;DHT22;838;51.794;12.258;2023-03-01T17:29:06;6.20;1.00
1680;DHT22;838;51.794;12.258;2023-03-01T17:31:32;6.10;1.00
1680;DHT22;838;51.794;12.258;2023-03-01T17:33:58;6.20;1.00
1680;DHT22;838;51.794;12.258;2023-03-01T17:36:26;5.90;1.00
1680;DHT22;838;51.794;12.258;2023-03-01T17:38:52;5.80;1.00
1680;DHT22;838;51.794;12.258;2023-03-01T17:44:10;5.70;1.00
1680;DHT22;838;51.794;12.258;2023-03-01T17:46:36;5.60;1.00
1680;DHT22;838;51.794;12.258;2023-03-01T17:49:48;5.40;1.00
1680;DHT22;838;51.794;12.258;2023-03-01T17:52:13;5.30;1.00
1680;DHT22;838;51.794;12.258;2023-03-01T17:54:39;5.50;1.00
1680;DHT22;838;51.794;12.258;2023-03-01T17:57:05;5.20;1.00
1680;DHT22;838;51.794;12.258;2023-03-01T17:59:31;5.10;1.00
1680;DHT22;838;51.794;12.258;2023-03-01T18:02:20;4.90;1.00
1680;DHT22;838;51.794;12.258;2023-03-01T18:04:45;4.80;1.00
1680;DHT22;838;51.794;12.258;2023-03-01T18:07:12;4.80;1.00
1680;DHT22;838;51.794;12.258;2023-03-01T18:09:37;4.70;1.00
1680;DHT22;838;51.794;12.258;2023-03-01T18:12:03;4.60;1.00
1680;DHT22;838;51.794;12.258;2023-03-01T18:14:29;4.40;1.00
1680;DHT22;838;51.794;12.258;2023-03-01T18:16:59;4.20;1.00
1680;DHT22;838;51.794;12.258;2023-03-01T18:19:27;4.20;1.00
1680;DHT22;838;51.794;12.258;2023-03-01T18:21:53;4.20;1.00
1680;DHT22;838;51.794;12.258;2023-03-01T18:24:19;4.20;1.00
1680;DHT22;838;51.794;12.258;2023-03-01T18:26:44;4.20;1.00
1680;DHT22;838;51.794;12.258;2023-03-01T18:29:10;4.10;1.00
1680;DHT22;838;51.794;12.258;2023-03-01T18:31:36;4.10;1.00
1680;DHT22;838;51.794;12.258;2023-03-01T18:34:02;3.90;1.00
1680;DHT22;838;51.794;12.258;2023-03-01T18:36:30;3.90;1.00
1680;DHT22;838;51.794;12.258;2023-03-01T18:38:56;3.80;1.00
1680;DHT22;838;51.794;12.258;2023-03-01T18:41:27;3.80;1.00
1680;DHT22;838;51.794;12.258;2023-03-01T18:43:53;3.70;1.00
1680;DHT22;838;51.794;12.258;2023-03-01T18:46:20;3.70;1.00
1680;DHT22;838;51.794;12.258;2023-03-01T18:48:50;3.60;1.00
1680;DHT22;838;51.794;12.258;2023-03-01T18:51:22;3.60;1.00
1680;DHT22;838;51.794;12.258;2023-03-01T18:53:48;3.40;1.00
1680;DHT22;838;51.794;12.258;2023-03-01T19:01:55;2.80;1.00
1680;DHT22;838;51.794;12.258;2023-03-01T19:04:23;2.10;1.00
1680;DHT22;838;51.794;12.258;2023-03-01T19:06:52;1.50;1.00
1680;DHT22;838;51.794;12.258;2023-03-01T19:09:23;1.20;1.00
1680;DHT22;838;51.794;12.258;2023-03-01T19:11:53;1.20;1.00
1680;DHT22;838;51.794;12.258;2023-03-01T19:14:28;1.30;1.00
1680;DHT22;838;51.794;12.258;2023-03-01T19:16:57;1.30;1.00
1680;DHT22;838;51.794;12.258;2023-03-01T19:19:23;1.20;1.00
1680;DHT22;838;51.794;12.258;2023-03-01T19:21:49;1.20;1.00
1680;DHT22;838;51.794;12.258;2023-03-01T19:24:29;1.20;1.00
1680;DHT22;838;51.794;12.258;2023-03-01T19:27:03;0.90;1.00
1680;DHT22;838;51.794;12.258;2023-03-01T19:29:41;0.90;1.00
1680;DHT22;838;51.794;12.258;2023-03-01T19:32:07;0.90;1.00
1680;DHT22;838;51.794;12.258;2023-03-01T19:34:35;1.10;1.00
1680;DHT22;838;51.794;12.258;2023-03-01T19:40:00;1.40;1.00
1680;DHT22;838;51.794;12.258;2023-03-01T19:42:29;1.70;1.00
1680;DHT22;838;51.794;12.258;2023-03-01T19:44:58;1.80;1.00
1680;DHT22;838;51.794;12.258;2023-03-01T19:47:24;1.70;1.00
1680;DHT22;838;51.794;12.258;2023-03-01T19:50:02;1.80;1.00
1680;DHT22;838;51.794;12.258;2023-03-01T19:52:28;1.90;1.00
1680;DHT22;838;51.794;12.258;2023-03-01T19:55:00;2.00;1.00
1680;DHT22;838;51.794;12.258;2023-03-01T19:57:28;2.00;1.00
1680;DHT22;838;51.794;12.258;2023-03-01T19:59:54;2.10;1.00
1680;DHT22;838;51.794;12.258;2023-03-01T20:02:20;2.10;1.00
1680;DHT22;838;51.794;12.258;2023-03-01T20:04:45;2.00;1.00
1680;DHT22;838;51.794;12.258;2023-03-01T20:07:11;1.90;1.00
1680;DHT22;838;51.794;12.258;2023-03-01T20:09:37;1.90;1.00
1680;DHT22;838;51.794;12.258;2023-03-01T20:12:04;1.90;1.00
1680;DHT22;838;51.794;12.258;2023-03-01T20:14:30;1.80;1.00
1680;DHT22;838;51.794;12.258;2023-03-01T20:16:56;1.90;1.00
1680;DHT22;838;51.794;12.258;2023-03-01T20:19:21;2.00;1.00
1680;DHT22;838;51.794;12.258;2023-03-01T20:21:48;2.00;1.00
1680;DHT22;838;51.794;12.258;2023-03-01T20:24:13;2.00;1.00
1680;DHT22;838;51.794;12.258;2023-03-01T20:26:39;1.80;1.00
1680;DHT22;838;51.794;12.258;2023-03-01T20:29:06;2.10;1.00
1680;DHT22;838;51.794;12.258;2023-03-01T20:31:32;1.90;1.00
1680;DHT22;838;51.794;12.258;2023-03-01T20:33:59;1.70;1.00
1680;DHT22;838;51.794;12.258;2023-03-01T20:36:32;1.80;1.00
1680;DHT22;838;51.794;12.258;2023-03-01T20:38:59;1.80;1.00
1680;DHT22;838;51.794;12.258;2023-03-01T20:41:24;1.80;1.00
1680;DHT22;838;51.794;12.258;2023-03-01T20:43:51;1.90;1.00
1680;DHT22;838;51.794;12.258;2023-03-01T20:46:23;1.70;1.00
1680;DHT22;838;51.794;12.258;2023-03-01T20:48:50;1.30;1.00
1680;DHT22;838;51.794;12.258;2023-03-01T20:51:16;0.80;1.00
1680;DHT22;838;51.794;12.258;2023-03-01T20:53:42;0.20;1.00
1680;DHT22;838;51.794;12.258;2023-03-01T20:56:12;-0.30;1.40
1680;DHT22;838;51.794;12.258;2023-03-01T20:58:38;-0.50;3.30
1680;DHT22;838;51.794;12.258;2023-03-01T21:01:06;-0.30;4.60
1680;DHT22;838;51.794;12.258;2023-03-01T21:03:32;-0.20;1.50